createdAt,value
2024-02-05T00:01:50.510Z,127.50
2024-02-05T00:04:17.445Z,131.20
2024-02-05T00:06:44.192Z,142.10
2024-02-05T00:09:10.947Z,144.45
2024-02-05T00:11:40.193Z,145.20
2024-02-05T00:14:06.630Z,146.63
2024-02-05T00:16:33.017Z,142.68
2024-02-05T00:18:59.725Z,144.05
2024-02-05T00:21:26.164Z,145.10
2024-02-05T00:23:52.526Z,136.80
2024-02-05T00:26:18.945Z,138.55
2024-02-05T00:28:45.378Z,131.52
2024-02-05T00:31:11.808Z,141.18
2024-02-05T00:33:38.436Z,139.00
2024-02-05T00:36:06.218Z,136.90
2024-02-05T00:38:32.721Z,137.45
2024-02-05T00:40:59.112Z,136.95
2024-02-05T00:43:25.569Z,137.88
2024-02-05T00:45:52.284Z,138.25
2024-02-05T00:48:18.742Z,127.78
2024-02-05T00:50:45.116Z,112.65
2024-02-05T00:53:11.842Z,120.55
2024-02-05T00:55:38.241Z,128.55
2024-02-05T00:58:04.860Z,118.88
2024-02-05T01:00:31.324Z,127.10
2024-02-05T01:03:05.253Z,125.68
2024-02-05T01:05:31.836Z,128.48
2024-02-05T01:08:00.754Z,127.10
2024-02-05T01:13:08.789Z,125.68
2024-02-05T01:15:35.596Z,112.07
2024-02-05T01:18:10.026Z,112.95
2024-02-05T01:20:36.493Z,124.07
2024-02-05T01:23:02.909Z,119.88
2024-02-05T01:25:29.869Z,125.38
2024-02-05T01:27:56.299Z,123.47
2024-02-05T01:30:22.738Z,121.45
2024-02-05T01:32:52.230Z,111.18
2024-02-05T01:35:19.029Z,115.80
2024-02-05T01:37:45.402Z,115.47
2024-02-05T01:40:12.172Z,113.30
2024-02-05T01:42:39.221Z,104.63
2024-02-05T01:45:06.109Z,122.38
2024-02-05T01:47:35.759Z,118.20
2024-02-05T01:50:02.918Z,126.15
2024-02-05T01:52:34.872Z,139.25
2024-02-05T01:55:01.649Z,131.75
2024-02-05T01:57:28.215Z,135.48
2024-02-05T01:59:55.038Z,129.70
2024-02-05T02:02:21.631Z,133.10
2024-02-05T02:04:48.152Z,134.43
2024-02-05T02:07:15.999Z,126.35
2024-02-05T02:09:45.705Z,130.20
2024-02-05T02:12:12.158Z,128.13
2024-02-05T02:14:38.727Z,127.63
2024-02-05T02:17:05.466Z,128.75
2024-02-05T02:19:39.410Z,135.05
2024-02-05T02:22:21.955Z,140.30
2024-02-05T02:24:48.634Z,137.02
2024-02-05T02:27:15.036Z,143.15
2024-02-05T02:29:41.754Z,138.57
2024-02-05T02:32:23.177Z,135.45
2024-02-05T02:34:51.736Z,137.70
2024-02-05T02:37:19.530Z,133.15
2024-02-05T02:40:15.816Z,131.70
2024-02-05T02:42:43.794Z,127.72
2024-02-05T02:45:11.592Z,130.15
2024-02-05T02:47:38.135Z,133.02
2024-02-05T02:50:05.182Z,133.30
2024-02-05T02:52:31.610Z,137.60
2024-02-05T02:54:58.095Z,128.90
2024-02-05T02:57:24.582Z,136.43
2024-02-05T02:59:52.248Z,155.38
2024-02-05T03:02:19.064Z,157.65
2024-02-05T03:04:45.729Z,152.52
2024-02-05T03:07:12.618Z,155.30
2024-02-05T03:09:39.046Z,155.35
2024-02-05T03:12:05.676Z,161.13
2024-02-05T03:14:32.092Z,157.55
2024-02-05T03:16:58.512Z,163.55
2024-02-05T03:19:25.103Z,154.68
2024-02-05T03:21:51.861Z,162.82
2024-02-05T03:24:18.320Z,168.80
2024-02-05T03:26:44.757Z,165.25
2024-02-05T03:29:11.113Z,168.80
2024-02-05T03:31:41.369Z,168.48
2024-02-05T03:34:07.810Z,170.18
2024-02-05T03:36:34.948Z,167.55
2024-02-05T03:39:01.342Z,166.38
2024-02-05T03:41:27.724Z,160.50
2024-02-05T03:43:54.069Z,150.05
2024-02-05T03:46:20.501Z,155.68
2024-02-05T03:48:53.919Z,177.05
2024-02-05T03:51:20.963Z,171.38
2024-02-05T03:53:47.580Z,177.00
2024-02-05T03:56:14.041Z,179.60
2024-02-05T03:58:40.438Z,156.73
2024-02-05T04:01:07.066Z,143.88
2024-02-05T04:03:33.566Z,132.27
2024-02-05T04:05:59.972Z,126.70
2024-02-05T04:08:26.339Z,120.68
2024-02-05T04:10:53.018Z,118.07
2024-02-05T04:13:19.530Z,118.68
2024-02-05T04:15:47.451Z,119.15
2024-02-05T04:18:14.012Z,119.75
2024-02-05T04:20:40.619Z,122.68
2024-02-05T04:23:07.224Z,127.30
2024-02-05T04:25:33.736Z,133.05
2024-02-05T04:28:00.705Z,134.30
2024-02-05T04:30:30.842Z,135.57
2024-02-05T04:32:57.548Z,136.73
2024-02-05T04:35:24.072Z,136.85
2024-02-05T04:37:50.614Z,135.40
2024-02-05T04:40:17.138Z,137.80
2024-02-05T04:42:43.658Z,135.45
2024-02-05T04:45:10.188Z,136.80
2024-02-05T04:47:36.600Z,139.05
2024-02-05T04:50:03.205Z,139.38
2024-02-05T04:52:29.863Z,141.38
2024-02-05T04:54:56.333Z,139.07
2024-02-05T04:57:22.809Z,138.45
2024-02-05T04:59:49.393Z,138.40
2024-02-05T05:02:16.243Z,140.75
2024-02-05T05:04:44.204Z,130.50
2024-02-05T05:07:10.935Z,140.52
2024-02-05T05:09:38.727Z,126.22
2024-02-05T05:12:07.150Z,121.53
2024-02-05T05:14:33.588Z,119.85
2024-02-05T05:16:59.965Z,122.25
2024-02-05T05:19:26.430Z,121.22
2024-02-05T05:21:53.000Z,119.80
2024-02-05T05:24:19.368Z,119.30
2024-02-05T05:26:45.728Z,122.45
2024-02-05T05:29:12.249Z,126.38
2024-02-05T05:31:38.639Z,128.88
2024-02-05T05:34:06.511Z,126.40
2024-02-05T05:36:35.181Z,132.85
2024-02-05T05:39:01.559Z,135.27
2024-02-05T05:41:27.966Z,139.73
2024-02-05T05:43:54.535Z,138.18
2024-02-05T05:46:21.016Z,137.30
2024-02-05T05:48:47.446Z,136.98
2024-02-05T05:51:15.830Z,137.10
2024-02-05T05:53:42.213Z,139.02
2024-02-05T05:56:10.106Z,136.95
2024-02-05T05:58:37.182Z,135.73
2024-02-05T06:01:07.425Z,138.23
2024-02-05T06:03:34.109Z,131.57
2024-02-05T06:06:00.740Z,134.55
2024-02-05T06:08:27.362Z,135.13
2024-02-05T06:10:53.771Z,136.85
2024-02-05T06:13:20.303Z,136.48
2024-02-05T06:15:46.796Z,137.90
2024-02-05T06:18:14.898Z,140.35
2024-02-05T06:20:41.555Z,137.93
2024-02-05T06:23:07.950Z,137.95
2024-02-05T06:25:34.373Z,135.65
2024-02-05T06:28:00.855Z,137.68
2024-02-05T06:30:28.381Z,134.77
2024-02-05T06:32:54.832Z,135.30
2024-02-05T06:35:21.248Z,136.85
2024-02-05T06:37:47.775Z,134.93
2024-02-05T06:40:15.297Z,138.63
2024-02-05T06:42:41.917Z,136.80
2024-02-05T06:45:09.276Z,119.07
2024-02-05T06:47:35.915Z,121.15
2024-02-05T06:50:02.525Z,115.57
2024-02-05T06:52:29.008Z,116.30
2024-02-05T06:54:55.450Z,116.13
2024-02-05T06:57:21.923Z,111.90
2024-02-05T06:59:48.357Z,110.60
2024-02-05T07:02:18.417Z,118.93
2024-02-05T07:04:46.658Z,121.82
2024-02-05T07:07:13.125Z,120.93
2024-02-05T07:09:39.622Z,120.25
2024-02-05T07:12:06.367Z,120.28
2024-02-05T07:14:32.819Z,118.88
2024-02-05T07:16:59.213Z,117.90
2024-02-05T07:19:28.650Z,120.53
2024-02-05T07:21:55.491Z,125.40
2024-02-05T07:24:21.940Z,132.68
2024-02-05T07:26:48.374Z,140.25
2024-02-05T07:29:14.789Z,138.85
2024-02-05T07:31:41.160Z,140.25
2024-02-05T07:34:07.734Z,130.50
2024-02-05T07:36:34.200Z,138.23
2024-02-05T07:39:00.632Z,139.77
2024-02-05T07:41:27.052Z,138.35
2024-02-05T07:43:53.543Z,139.98
2024-02-05T07:46:21.349Z,142.73
2024-02-05T07:48:47.818Z,140.65
2024-02-05T07:51:14.300Z,136.73
2024-02-05T07:53:40.845Z,138.38
2024-02-05T07:56:10.406Z,138.70
2024-02-05T07:58:39.958Z,132.25
2024-02-05T08:01:06.481Z,133.82
2024-02-05T08:03:36.057Z,128.85
2024-02-05T08:06:07.441Z,132.75
2024-02-05T08:08:33.902Z,130.35
2024-02-05T08:11:00.582Z,133.90
2024-02-05T08:13:26.970Z,137.93
2024-02-05T08:15:53.387Z,136.38
2024-02-05T08:18:20.028Z,136.73
2024-02-05T08:20:46.489Z,136.50
2024-02-05T08:23:12.964Z,135.93
2024-02-05T08:25:39.391Z,132.73
2024-02-05T08:28:06.683Z,133.95
2024-02-05T08:30:33.651Z,133.60
2024-02-05T08:33:00.181Z,128.20
2024-02-05T08:35:26.586Z,133.30
2024-02-05T08:37:54.281Z,131.35
2024-02-05T08:40:20.834Z,130.98
2024-02-05T08:42:47.292Z,134.25
2024-02-05T08:45:13.728Z,131.23
2024-02-05T08:47:40.432Z,130.70
2024-02-05T08:50:08.103Z,111.45
2024-02-05T08:52:34.721Z,138.85
2024-02-05T08:55:01.226Z,136.05
2024-02-05T08:57:27.673Z,150.25
2024-02-05T08:59:54.062Z,160.98
2024-02-05T09:02:21.107Z,157.18
2024-02-05T09:04:47.909Z,201.18
2024-02-05T09:07:18.094Z,203.18
2024-02-05T09:09:44.737Z,204.65
2024-02-05T09:12:13.420Z,204.43
2024-02-05T09:14:40.570Z,127.10
2024-02-05T09:17:06.939Z,129.70
2024-02-05T09:19:34.088Z,127.78
2024-02-05T09:22:01.083Z,127.97
2024-02-05T09:24:27.544Z,127.75
2024-02-05T09:26:54.457Z,132.07
2024-02-05T09:29:20.878Z,128.95
2024-02-05T09:31:47.376Z,125.43
2024-02-05T09:34:15.168Z,125.65
2024-02-05T09:36:42.059Z,124.82
2024-02-05T09:39:08.577Z,128.60
2024-02-05T09:41:35.750Z,125.53
2024-02-05T09:44:04.184Z,112.55
2024-02-05T09:46:33.918Z,112.80
2024-02-05T09:49:01.273Z,113.60
2024-02-05T09:51:30.818Z,113.68
2024-02-05T09:54:07.707Z,113.45
2024-02-05T09:56:41.269Z,109.20
2024-02-05T09:59:07.972Z,109.80
2024-02-05T10:01:35.573Z,111.22
2024-02-05T10:04:02.788Z,112.47
2024-02-05T10:06:32.688Z,116.68
2024-02-05T10:09:00.801Z,113.82
2024-02-05T10:11:28.144Z,108.93
2024-02-05T10:13:56.876Z,104.22
2024-02-05T10:16:24.047Z,107.65
2024-02-05T10:18:50.808Z,107.85
2024-02-05T10:21:17.633Z,106.07
2024-02-05T10:23:51.598Z,103.63
2024-02-05T10:26:17.972Z,104.35
2024-02-05T10:28:44.327Z,100.30
2024-02-05T10:31:15.321Z,100.15
2024-02-05T10:33:42.362Z,106.07
2024-02-05T10:36:09.030Z,107.07
2024-02-05T10:38:36.304Z,107.93
2024-02-05T10:41:03.343Z,106.78
2024-02-05T10:43:30.458Z,108.82
2024-02-05T10:45:57.798Z,103.38
2024-02-05T10:48:25.236Z,98.97
2024-02-05T10:50:52.046Z,103.50
2024-02-05T10:53:18.575Z,105.35
2024-02-05T10:55:48.218Z,106.90
2024-02-05T10:58:15.270Z,105.43
2024-02-05T11:00:44.571Z,112.53
2024-02-05T11:03:16.551Z,113.65
2024-02-05T11:05:44.216Z,104.25
2024-02-05T11:08:15.576Z,123.03
2024-02-05T11:10:45.115Z,113.55
2024-02-05T11:13:14.431Z,115.18
2024-02-05T11:15:41.349Z,110.13
2024-02-05T11:18:17.616Z,109.65
2024-02-05T11:20:45.469Z,110.55
2024-02-05T11:23:13.343Z,111.47
2024-02-05T11:25:40.665Z,113.18
2024-02-05T11:28:11.599Z,107.85
2024-02-05T11:30:42.237Z,98.35
2024-02-05T11:33:08.692Z,95.95
2024-02-05T11:35:36.084Z,98.35
2024-02-05T11:38:06.267Z,103.85
2024-02-05T11:40:34.418Z,122.30
2024-02-05T11:43:07.486Z,114.90
2024-02-05T11:45:34.329Z,123.80
2024-02-05T11:48:01.666Z,150.25
2024-02-05T11:50:28.901Z,193.10
2024-02-05T11:52:56.134Z,140.90
2024-02-05T11:55:24.480Z,149.85
2024-02-05T11:57:54.113Z,98.75
2024-02-05T12:00:20.901Z,106.90
2024-02-05T12:02:47.450Z,110.82
2024-02-05T12:05:14.128Z,112.03
2024-02-05T12:07:40.859Z,100.90
2024-02-05T12:10:07.703Z,104.47
2024-02-05T12:12:34.112Z,141.23
2024-02-05T12:15:00.528Z,101.80
2024-02-05T12:17:29.517Z,133.27
2024-02-05T12:19:59.541Z,101.22
2024-02-05T12:22:27.387Z,146.02
2024-02-05T12:24:54.478Z,168.63
2024-02-05T12:27:22.299Z,162.25
2024-02-05T12:29:48.690Z,182.85
2024-02-05T12:32:15.155Z,149.15
2024-02-05T12:34:46.281Z,145.52
2024-02-05T12:37:12.936Z,156.25
2024-02-05T12:39:42.933Z,158.55
2024-02-05T12:42:10.779Z,169.63
2024-02-05T12:44:40.940Z,134.82
2024-02-05T12:47:13.936Z,138.90
2024-02-05T12:49:40.558Z,165.77
2024-02-05T12:52:07.239Z,174.85
2024-02-05T12:54:33.785Z,175.20
2024-02-05T12:57:00.642Z,196.07
2024-02-05T12:59:27.107Z,134.70
2024-02-05T13:01:59.452Z,128.63
2024-02-05T13:04:28.251Z,136.00
2024-02-05T13:07:01.556Z,145.02
2024-02-05T13:09:28.015Z,148.05
2024-02-05T13:11:54.657Z,142.00
2024-02-05T13:14:21.030Z,143.18
2024-02-05T13:16:48.714Z,140.95
2024-02-05T13:19:17.270Z,145.25
2024-02-05T13:21:46.166Z,202.20
2024-02-05T13:24:15.258Z,198.90
2024-02-05T13:26:41.904Z,150.13
2024-02-05T13:29:08.333Z,155.90
2024-02-05T13:31:35.266Z,160.60
2024-02-05T13:34:01.761Z,163.63
2024-02-05T13:36:28.281Z,169.60
2024-02-05T13:38:54.656Z,168.13
2024-02-05T13:41:24.270Z,169.30
2024-02-05T13:43:50.969Z,164.63
2024-02-05T13:46:17.459Z,116.20
2024-02-05T13:48:43.909Z,123.10
2024-02-05T13:51:10.523Z,117.95
2024-02-05T13:53:36.912Z,114.32
2024-02-05T13:56:05.374Z,112.47
2024-02-05T13:58:31.809Z,109.97
2024-02-05T14:00:58.382Z,111.82
2024-02-05T14:03:24.831Z,107.85
2024-02-05T14:05:51.352Z,106.43
2024-02-05T14:08:17.832Z,102.40
2024-02-05T14:10:47.470Z,107.65
2024-02-05T14:13:13.941Z,111.55
2024-02-05T14:15:40.833Z,112.35
2024-02-05T14:18:07.534Z,115.63
2024-02-05T14:20:33.975Z,118.93
2024-02-05T14:23:00.368Z,114.10
2024-02-05T14:25:27.102Z,115.97
2024-02-05T14:27:55.791Z,112.57
2024-02-05T14:30:22.786Z,129.23
2024-02-05T14:32:49.236Z,103.55
2024-02-05T14:35:15.781Z,93.45
2024-02-05T14:37:42.179Z,100.43
2024-02-05T14:40:08.856Z,99.28
2024-02-05T14:42:35.341Z,105.18
2024-02-05T14:45:01.759Z,95.80
2024-02-05T14:47:28.171Z,94.60
2024-02-05T14:49:54.881Z,90.60
2024-02-05T14:52:21.589Z,91.65
2024-02-05T14:54:48.383Z,93.30
2024-02-05T14:57:14.801Z,90.10
2024-02-05T14:59:41.178Z,101.22
2024-02-05T15:02:07.639Z,101.68
2024-02-05T15:04:34.161Z,102.72
2024-02-05T15:07:00.660Z,104.95
2024-02-05T15:09:27.128Z,99.85
2024-02-05T15:11:53.509Z,100.75
2024-02-05T15:14:19.879Z,103.03
2024-02-05T15:16:46.352Z,99.93
2024-02-05T15:19:12.843Z,95.93
2024-02-05T15:21:39.319Z,107.15
2024-02-05T15:24:07.275Z,105.80
2024-02-05T15:26:36.038Z,110.65
2024-02-05T15:29:02.765Z,105.05
2024-02-05T15:31:29.307Z,101.57
2024-02-05T15:33:56.581Z,113.20
2024-02-05T15:36:23.088Z,112.22
2024-02-05T15:38:49.420Z,110.90
2024-02-05T15:41:16.761Z,103.75
2024-02-05T15:43:43.138Z,112.38
2024-02-05T15:46:10.134Z,108.70
2024-02-05T15:48:36.692Z,108.22
2024-02-05T15:51:03.335Z,109.78
2024-02-05T15:53:29.755Z,117.68
2024-02-05T15:55:56.179Z,116.63
2024-02-05T15:58:22.712Z,114.18
2024-02-05T16:00:49.165Z,113.32
2024-02-05T16:03:15.711Z,115.43
2024-02-05T16:05:42.228Z,117.53
2024-02-05T16:08:08.802Z,112.60
2024-02-05T16:10:39.368Z,111.30
2024-02-05T16:15:46.936Z,108.40
2024-02-05T16:18:14.154Z,111.88
2024-02-05T16:20:41.184Z,111.03
2024-02-05T16:23:07.740Z,106.70
2024-02-05T16:25:39.592Z,110.60
2024-02-05T16:28:07.796Z,124.47
2024-02-05T16:30:35.301Z,120.00
2024-02-05T16:33:02.011Z,118.18
2024-02-05T16:35:29.772Z,115.38
2024-02-05T16:37:59.490Z,118.90
2024-02-05T16:40:26.076Z,117.65
2024-02-05T16:42:52.622Z,118.90
2024-02-05T16:45:19.077Z,114.55
2024-02-05T16:47:48.523Z,113.15
2024-02-05T16:50:15.896Z,102.57
2024-02-05T16:52:42.327Z,111.28
2024-02-05T16:55:09.012Z,109.65
2024-02-05T16:57:35.444Z,110.60
2024-02-05T17:00:01.895Z,113.15
2024-02-05T17:02:28.478Z,110.82
2024-02-05T17:04:54.943Z,111.68
2024-02-05T17:07:21.467Z,114.15
2024-02-05T17:17:57.088Z,112.75
2024-02-05T17:20:23.812Z,113.18
2024-02-05T17:22:53.836Z,113.85
2024-02-05T17:25:20.294Z,109.85
2024-02-05T17:27:46.769Z,130.90
2024-02-05T17:46:23.570Z,137.43
2024-02-05T18:07:39.199Z,131.18
2024-02-05T18:10:05.863Z,115.05
2024-02-05T18:12:32.275Z,112.82
2024-02-05T18:14:58.730Z,143.80
2024-02-05T18:17:25.188Z,112.35
2024-02-05T18:19:51.807Z,119.07
2024-02-05T18:22:18.291Z,115.20
2024-02-05T18:24:49.956Z,126.35
2024-02-05T18:27:17.763Z,146.52
2024-02-05T18:29:44.223Z,141.30
2024-02-05T18:32:10.685Z,146.88
2024-02-05T18:34:42.389Z,152.55
2024-02-05T18:37:11.296Z,147.63
2024-02-05T18:39:37.723Z,150.50
2024-02-05T18:42:04.300Z,147.32
2024-02-05T18:44:30.729Z,148.70
2024-02-05T18:46:57.624Z,154.20
2024-02-05T18:49:24.985Z,152.32
2024-02-05T18:51:51.960Z,151.45
2024-02-05T18:54:18.364Z,146.80
2024-02-05T18:56:44.752Z,160.18
2024-02-05T18:59:11.196Z,198.65
2024-02-05T19:01:37.843Z,176.02
2024-02-05T19:04:04.567Z,257.10
2024-02-05T19:06:31.036Z,184.07
2024-02-05T19:08:57.506Z,170.15
2024-02-05T19:11:23.923Z,127.68
2024-02-05T19:13:50.439Z,127.45
2024-02-05T19:16:17.598Z,124.68
2024-02-05T19:18:45.273Z,122.90
2024-02-05T19:21:11.957Z,118.90
2024-02-05T19:23:38.339Z,115.32
2024-02-05T19:26:08.026Z,117.75
2024-02-05T19:28:34.695Z,117.05
2024-02-05T19:31:01.210Z,120.57
2024-02-05T19:33:27.774Z,110.97
2024-02-05T19:35:54.341Z,137.80
2024-02-05T19:38:20.950Z,118.75
2024-02-05T19:40:47.423Z,110.05
2024-02-05T19:43:13.903Z,118.60
2024-02-05T19:45:40.312Z,126.85
2024-02-05T19:48:17.966Z,111.25
2024-02-05T19:50:44.504Z,111.43
2024-02-05T19:53:11.303Z,103.25
2024-02-05T19:55:40.681Z,141.90
2024-02-05T19:58:07.325Z,123.72
2024-02-05T20:00:36.721Z,111.07
2024-02-05T20:03:06.590Z,109.05
2024-02-05T20:05:33.154Z,107.60
2024-02-05T20:07:59.745Z,108.55
2024-02-05T20:10:26.293Z,104.25
2024-02-05T20:12:53.060Z,104.32
2024-02-05T20:15:19.541Z,104.65
2024-02-05T20:17:46.128Z,128.68
2024-02-05T20:20:12.837Z,108.65
2024-02-05T20:22:39.391Z,131.43
2024-02-05T20:25:08.851Z,103.90
2024-02-05T20:27:37.231Z,100.93
2024-02-05T20:30:03.760Z,90.80
2024-02-05T20:32:30.415Z,125.32
2024-02-05T20:34:57.008Z,133.43
2024-02-05T20:37:23.531Z,100.97
2024-02-05T20:39:50.027Z,131.48
2024-02-05T20:42:16.497Z,131.98
2024-02-05T20:44:43.110Z,113.90
2024-02-05T20:47:26.269Z,135.98
2024-02-05T20:50:02.066Z,120.15
2024-02-05T20:52:30.366Z,139.68
2024-02-05T20:55:25.365Z,145.82
2024-02-05T20:57:52.101Z,115.53
2024-02-05T21:03:01.708Z,115.05
2024-02-05T21:05:28.131Z,113.40
2024-02-05T21:07:54.678Z,103.47
2024-02-05T21:10:21.532Z,114.05
2024-02-05T21:12:48.157Z,89.80
2024-02-05T21:15:14.900Z,96.82
2024-02-05T21:17:42.101Z,96.10
2024-02-05T21:20:08.955Z,114.95
2024-02-05T21:22:35.665Z,108.75
2024-02-05T21:25:02.887Z,86.72
2024-02-05T21:27:29.447Z,95.43
2024-02-05T21:29:55.916Z,98.35
2024-02-05T21:32:22.281Z,74.03
2024-02-05T21:34:49.298Z,102.30
2024-02-05T21:37:16.517Z,73.93
2024-02-05T21:39:43.345Z,80.70
2024-02-05T21:42:09.836Z,80.00
2024-02-05T21:44:36.213Z,103.60
2024-02-05T21:47:02.673Z,106.43
2024-02-05T21:49:29.192Z,104.75
2024-02-05T21:51:55.648Z,85.40
2024-02-05T21:54:23.537Z,112.68
2024-02-05T21:56:50.782Z,103.35
2024-02-05T21:59:17.311Z,107.40
2024-02-05T22:01:44.029Z,104.50
2024-02-05T22:04:10.602Z,101.22
2024-02-05T22:06:37.109Z,85.25
2024-02-05T22:09:03.572Z,100.57
2024-02-05T22:11:29.943Z,98.20
2024-02-05T22:13:56.321Z,99.47
2024-02-05T22:16:22.795Z,98.95
2024-02-05T22:18:49.482Z,106.93
2024-02-05T22:21:15.934Z,103.90
2024-02-05T22:23:42.462Z,93.60
2024-02-05T22:26:08.894Z,97.35
2024-02-05T22:28:35.378Z,67.32
2024-02-05T22:31:03.135Z,71.65
2024-02-05T22:33:36.221Z,67.63
2024-02-05T22:36:04.465Z,76.75
2024-02-05T22:38:30.971Z,66.63
2024-02-05T22:40:57.435Z,84.32
2024-02-05T22:43:23.875Z,91.57
2024-02-05T22:45:50.321Z,71.00
2024-02-05T22:48:16.864Z,80.30
2024-02-05T22:50:43.370Z,72.20
2024-02-05T22:53:11.090Z,96.78
2024-02-05T22:55:37.779Z,91.40
2024-02-05T22:58:04.365Z,80.22
2024-02-05T23:00:33.376Z,84.80
2024-02-05T23:02:59.730Z,91.80
2024-02-05T23:05:26.235Z,84.55
2024-02-05T23:07:52.893Z,77.70
2024-02-05T23:10:20.269Z,78.25
2024-02-05T23:12:46.659Z,83.40
2024-02-05T23:15:13.119Z,104.68
2024-02-05T23:17:39.523Z,91.40
2024-02-05T23:20:06.626Z,87.43
2024-02-05T23:22:33.305Z,64.05
2024-02-05T23:24:59.774Z,69.20
2024-02-05T23:27:26.200Z,83.50
2024-02-05T23:29:52.743Z,74.38
2024-02-05T23:32:19.150Z,94.75
2024-02-05T23:34:45.642Z,76.25
2024-02-05T23:37:12.127Z,78.65
2024-02-05T23:39:38.610Z,100.13
2024-02-05T23:42:04.994Z,103.90
2024-02-05T23:44:31.464Z,85.63
2024-02-05T23:46:57.866Z,67.55
2024-02-05T23:49:24.306Z,88.13
2024-02-05T23:51:50.801Z,82.40
2024-02-05T23:54:17.201Z,57.70
2024-02-05T23:56:43.629Z,62.92
2024-02-05T23:59:10.127Z,64.00
